Time;durP1;ratioP1;P1;durP2;ratioP2;P2;SDS_P1;SDS_P2;PMS_P1;PMS_P2;Temp;Humidity;BMP_temperature;BMP_pressure;BME280_temperature;BME280_humidity;BME280_pressure;Samples;Min_cycle;Max_cycle;Signal;HPM_P1;HPM_P2
2021/01/15 00:00:15;;;;;;;14.82;8.15;;;1.80;93.40;;;;;;5014682;28;20436;-75
2021/01/15 00:02:41;;;;;;;13.45;7.60;;;1.80;93.30;;;;;;5015907;28;20033;-74
2021/01/15 00:05:07;;;;;;;13.15;7.47;;;1.80;92.90;;;;;;5030968;28;20021;-75
2021/01/15 00:07:33;;;;;;;15.57;8.15;;;1.80;92.90;;;;;;5029109;28;20539;-75
2021/01/15 00:09:59;;;;;;;14.77;8.15;;;1.80;93.10;;;;;;5011931;28;20018;-75
2021/01/15 00:12:24;;;;;;;14.02;8.32;;;1.80;93.30;;;;;;5015792;28;20601;-75
2021/01/15 00:14:50;;;;;;;12.18;7.63;;;1.80;93.10;;;;;;5017043;28;20044;-75
2021/01/15 00:17:16;;;;;;;14.35;7.97;;;1.80;92.90;;;;;;5032666;28;20105;-75
2021/01/15 00:19:41;;;;;;;12.93;7.45;;;1.80;93.20;;;;;;5029997;28;20025;-75
2021/01/15 00:22:07;;;;;;;16.45;7.93;;;1.80;92.80;;;;;;5029543;28;20034;-75
2021/01/15 00:24:33;;;;;;;13.75;7.60;;;1.80;92.50;;;;;;5029411;28;20101;-75
2021/01/15 00:26:58;;;;;;;14.45;7.57;;;1.80;92.80;;;;;;5033690;28;20508;-75
2021/01/15 00:29:27;;;;;;;13.38;6.90;;;1.80;92.60;;;;;;5033528;28;20018;-74
2021/01/15 00:31:53;;;;;;;12.10;7.22;;;1.80;92.80;;;;;;5012313;28;20017;-75
2021/01/15 00:34:18;;;;;;;13.50;7.10;;;1.70;92.70;;;;;;5014794;28;20025;-75
2021/01/15 00:36:46;;;;;;;12.15;6.65;;;1.70;93.00;;;;;;5030759;28;20025;-75
2021/01/15 00:39:16;;;;;;;15.35;7.57;;;1.70;93.00;;;;;;5031740;28;20029;-75
2021/01/15 00:41:45;;;;;;;13.25;7.07;;;1.70;93.10;;;;;;5012578;28;20032;-75
2021/01/15 00:44:12;;;;;;;13.52;7.25;;;1.70;93.20;;;;;;5015746;28;20105;-75
2021/01/15 00:46:45;;;;;;;17.48;7.32;;;1.70;93.20;;;;;;5033213;28;20029;-74
2021/01/15 00:49:13;;;;;;;13.98;8.07;;;1.70;93.40;;;;;;5031980;28;20017;-75
2021/01/15 00:51:39;;;;;;;13.80;8.38;;;1.70;93.40;;;;;;5032418;28;20033;-75
2021/01/15 00:54:05;;;;;;;16.17;8.93;;;1.70;93.30;;;;;;5036459;28;20021;-76
2021/01/15 00:56:31;;;;;;;15.85;9.23;;;1.70;93.10;;;;;;5034948;28;20026;-75
2021/01/15 00:58:57;;;;;;;15.98;8.57;;;1.70;93.50;;;;;;5019446;28;20058;-75
2021/01/15 01:01:24;;;;;;;16.20;9.15;;;1.80;93.40;;;;;;5021365;28;20452;-75
2021/01/15 01:03:51;;;;;;;22.52;9.80;;;1.80;93.60;;;;;;5034716;28;20029;-75
2021/01/15 01:06:18;;;;;;;16.10;8.55;;;1.80;93.60;;;;;;5037079;28;20017;-75
2021/01/15 01:08:45;;;;;;;16.40;9.00;;;1.70;93.70;;;;;;5016560;28;20049;-75
2021/01/15 01:11:20;;;;;;;18.73;9.70;;;1.80;93.70;;;;;;5032232;28;20025;-75
2021/01/15 01:13:54;;;;;;;16.85;9.57;;;1.80;93.90;;;;;;5033831;28;20025;-75
2021/01/15 01:16:21;;;;;;;19.05;10.00;;;1.80;93.80;;;;;;5018506;28;20059;-75
2021/01/15 01:18:48;;;;;;;19.45;10.10;;;1.80;93.80;;;;;;5029484;28;20051;-74
2021/01/15 01:21:13;;;;;;;19.52;10.80;;;1.80;94.10;;;;;;5030750;28;20041;-75
2021/01/15 01:23:40;;;;;;;19.00;10.65;;;1.70;94.30;;;;;;5029806;28;20033;-75
2021/01/15 01:26:06;;;;;;;19.65;10.63;;;1.70;94.30;;;;;;5032040;28;20519;-75
2021/01/15 01:28:32;;;;;;;20.67;10.38;;;1.70;94.20;;;;;;5032247;28;20401;-75
2021/01/15 01:30:58;;;;;;;17.88;10.10;;;1.70;94.30;;;;;;5029713;28;20041;-75
2021/01/15 01:33:24;;;;;;;16.83;10.13;;;1.70;94.30;;;;;;5030524;28;20156;-75
2021/01/15 01:35:50;;;;;;;21.58;12.05;;;1.70;94.40;;;;;;5030315;28;20025;-75
2021/01/15 01:38:17;;;;;;;21.25;11.85;;;1.70;94.40;;;;;;5030232;28;20033;-75
2021/01/15 01:40:43;;;;;;;19.98;11.15;;;1.70;94.40;;;;;;5013643;28;20108;-75
2021/01/15 01:43:09;;;;;;;19.90;10.93;;;1.70;94.40;;;;;;5013587;28;20107;-75
2021/01/15 01:45:35;;;;;;;18.83;10.93;;;1.70;94.60;;;;;;5029426;28;20033;-75
2021/01/15 01:48:01;;;;;;;22.30;11.93;;;1.70;94.40;;;;;;5029253;28;20100;-75
2021/01/15 01:50:28;;;;;;;19.38;10.98;;;1.70;94.50;;;;;;5027618;28;20060;-75
2021/01/15 01:52:54;;;;;;;21.02;11.60;;;1.70;94.50;;;;;;5012392;28;20037;-75
2021/01/15 01:55:21;;;;;;;24.10;12.57;;;1.70;94.40;;;;;;5028446;28;20396;-75
2021/01/15 01:57:47;;;;;;;22.92;11.07;;;1.70;94.50;;;;;;5030515;28;20017;-75
2021/01/15 02:00:13;;;;;;;22.73;11.32;;;1.70;94.60;;;;;;5012879;28;20444;-75
2021/01/15 02:02:39;;;;;;;25.30;12.38;;;1.70;94.50;;;;;;5029461;28;20021;-75
2021/01/15 02:05:06;;;;;;;21.35;11.52;;;1.70;94.60;;;;;;5027088;28;20041;-75
2021/01/15 02:07:32;;;;;;;22.23;10.57;;;1.70;94.60;;;;;;5012498;28;20392;-75
2021/01/15 02:10:40;;;;;;;24.75;13.23;;;1.70;94.50;;;;;;5044197;28;20041;-74
2021/01/15 02:13:21;;;;;;;22.58;12.60;;;1.70;94.50;;;;;;4993887;28;20064;-74
2021/01/15 02:15:51;;;;;;;24.20;12.00;;;1.70;94.70;;;;;;5029955;28;20103;-75
2021/01/15 02:18:29;;;;;;;22.30;12.48;;;1.80;94.60;;;;;;5029157;28;20033;-75
2021/01/15 02:21:20;;;;;;;22.33;11.20;;;1.70;94.50;;;;;;5030061;28;20119;-75
2021/01/15 02:23:48;;;;;;;25.90;12.43;;;1.80;94.60;;;;;;5028445;28;20108;-75
2021/01/15 02:26:41;;;;;;;23.15;11.73;;;1.80;94.80;;;;;;5012210;28;20447;-75
2021/01/15 02:29:11;;;;;;;26.65;12.43;;;1.80;94.70;;;;;;5026821;28;20028;-75
2021/01/15 02:31:46;;;;;;;22.80;12.07;;;1.70;94.70;;;;;;5029213;28;20034;-75
2021/01/15 02:34:24;;;;;;;22.05;11.25;;;1.70;94.70;;;;;;5011781;28;20029;-76
2021/01/15 02:37:16;;;;;;;23.10;11.70;;;1.70;94.70;;;;;;5029476;28;20095;-75
2021/01/15 02:40:06;;;;;;;28.52;12.02;;;1.80;94.80;;;;;;5029427;28;20049;-75
2021/01/15 02:42:37;;;;;;;22.15;11.57;;;1.80;94.70;;;;;;5011509;28;20485;-75
2021/01/15 02:45:08;;;;;;;22.15;12.90;;;1.80;94.60;;;;;;5027487;22;20045;-76
2021/01/15 02:47:42;;;;;;;24.15;13.32;;;1.80;94.80;;;;;;5017862;28;20121;-76
2021/01/15 02:50:11;;;;;;;25.65;12.80;;;1.80;94.90;;;;;;5019991;28;20026;-76
2021/01/15 02:52:36;;;;;;;27.55;13.65;;;1.70;94.70;;;;;;5003252;28;20036;-76
2021/01/15 02:55:03;;;;;;;25.40;12.32;;;1.80;94.90;;;;;;5000498;28;20026;-76
2021/01/15 02:57:28;;;;;;;23.13;12.07;;;1.70;94.90;;;;;;5017009;28;20043;-76
2021/01/15 02:59:54;;;;;;;26.85;13.27;;;1.70;94.90;;;;;;5020199;28;20116;-76
2021/01/15 03:02:35;;;;;;;22.80;11.82;;;1.70;94.90;;;;;;5018039;28;20064;-76
2021/01/15 03:05:08;;;;;;;30.00;13.38;;;1.70;94.80;;;;;;5016881;28;20428;-76
2021/01/15 03:07:34;;;;;;;21.33;12.52;;;1.70;95.00;;;;;;5019209;28;20071;-76
2021/01/15 03:10:04;;;;;;;22.90;13.00;;;1.80;94.80;;;;;;5021684;28;20037;-76
2021/01/15 03:12:31;;;;;;;23.15;11.60;;;1.70;94.90;;;;;;5001850;28;20026;-76
2021/01/15 03:14:58;;;;;;;25.83;12.73;;;1.70;94.90;;;;;;5021670;28;20036;-76
2021/01/15 03:17:30;;;;;;;21.70;11.73;;;1.70;94.80;;;;;;5018144;28;20030;-76
2021/01/15 03:19:56;;;;;;;21.67;11.70;;;1.70;94.80;;;;;;5017297;28;20033;-76
2021/01/15 03:22:23;;;;;;;22.40;11.63;;;1.70;94.80;;;;;;5019043;28;20029;-76
2021/01/15 03:24:57;;;;;;;27.27;12.57;;;1.70;94.90;;;;;;5018618;28;20024;-76
2021/01/15 03:27:29;;;;;;;24.45;11.63;;;1.70;94.90;;;;;;5017589;28;20040;-76
2021/01/15 03:29:55;;;;;;;20.55;11.00;;;1.70;94.90;;;;;;5000730;28;20366;-76
2021/01/15 03:32:23;;;;;;;23.00;11.25;;;1.70;94.80;;;;;;5017815;28;20030;-76
2021/01/15 03:34:48;;;;;;;19.55;10.98;;;1.70;94.90;;;;;;4998678;28;20133;-76
2021/01/15 03:37:14;;;;;;;19.85;9.95;;;1.70;94.70;;;;;;5020542;28;20169;-77
2021/01/15 03:39:40;;;;;;;19.13;10.55;;;1.70;94.30;;;;;;5016374;28;20049;-76
2021/01/15 03:42:06;;;;;;;16.77;9.30;;;1.70;94.40;;;;;;5020448;28;20037;-75
2021/01/15 03:44:31;;;;;;;18.08;9.77;;;1.70;94.00;;;;;;5018674;28;20449;-76
2021/01/15 03:46:57;;;;;;;17.98;8.75;;;1.70;94.20;;;;;;4999615;28;20050;-76
2021/01/15 03:49:23;;;;;;;14.18;8.32;;;1.60;94.20;;;;;;5017775;28;20064;-76
2021/01/15 03:51:49;;;;;;;19.42;9.00;;;1.60;94.10;;;;;;5017602;28;20041;-76
2021/01/15 03:54:15;;;;;;;14.05;8.07;;;1.60;94.00;;;;;;5018716;28;20174;-76
2021/01/15 03:56:43;;;;;;;17.83;8.43;;;1.60;94.20;;;;;;5033918;28;20061;-76
2021/01/15 03:59:09;;;;;;;14.95;7.90;;;1.60;94.10;;;;;;5015723;28;20128;-76
2021/01/15 04:01:37;;;;;;;14.48;7.75;;;1.60;94.00;;;;;;5014537;28;20133;-77
2021/01/15 04:04:03;;;;;;;17.00;7.53;;;1.60;93.60;;;;;;5017927;28;20050;-76
2021/01/15 04:06:29;;;;;;;15.63;7.72;;;1.50;93.70;;;;;;5020508;28;20134;-76
2021/01/15 04:08:55;;;;;;;16.23;8.18;;;1.50;93.90;;;;;;5015768;28;20041;-76
2021/01/15 04:11:20;;;;;;;13.00;7.07;;;1.50;94.00;;;;;;5020030;28;20022;-76
2021/01/15 04:13:46;;;;;;;17.38;7.85;;;1.50;93.60;;;;;;5019149;28;20037;-76
2021/01/15 04:16:16;;;;;;;15.20;8.30;;;1.50;93.70;;;;;;5018220;28;20396;-76
2021/01/15 04:18:43;;;;;;;12.63;6.97;;;1.50;93.70;;;;;;5035008;28;20413;-76
2021/01/15 04:21:13;;;;;;;15.30;7.72;;;1.50;93.60;;;;;;5017073;28;20148;-77
2021/01/15 04:23:39;;;;;;;16.30;7.55;;;1.50;93.70;;;;;;5018642;28;20033;-76
2021/01/15 04:26:05;;;;;;;17.13;7.28;;;1.50;93.50;;;;;;5021819;28;20103;-76
2021/01/15 04:28:30;;;;;;;13.50;7.32;;;1.50;93.40;;;;;;5022831;28;20527;-76
2021/01/15 04:30:56;;;;;;;13.43;7.25;;;1.50;93.40;;;;;;5020493;28;20500;-76
2021/01/15 04:33:21;;;;;;;18.73;7.55;;;1.50;93.20;;;;;;5022946;28;20565;-76
2021/01/15 04:35:47;;;;;;;15.15;7.65;;;1.50;93.70;;;;;;5032308;28;20492;-76
2021/01/15 04:38:13;;;;;;;14.98;8.25;;;1.50;93.40;;;;;;5023590;28;20388;-75
2021/01/15 04:40:39;;;;;;;16.92;8.43;;;1.50;93.50;;;;;;5019579;28;20113;-76
2021/01/15 04:43:05;;;;;;;15.32;7.50;;;1.50;93.70;;;;;;5037204;28;20029;-76
2021/01/15 04:45:31;;;;;;;13.52;7.30;;;1.50;93.40;;;;;;5020191;28;20045;-76
2021/01/15 04:47:57;;;;;;;14.00;7.35;;;1.50;92.90;;;;;;5018892;28;20033;-76
2021/01/15 04:50:24;;;;;;;15.35;7.47;;;1.50;93.40;;;;;;5021410;28;20058;-76
2021/01/15 04:52:51;;;;;;;14.95;7.57;;;1.50;93.20;;;;;;5020131;28;20105;-76
2021/01/15 04:55:23;;;;;;;14.25;8.05;;;1.50;93.30;;;;;;5020166;28;20030;-76
2021/01/15 04:57:51;;;;;;;14.20;7.15;;;1.50;93.40;;;;;;5007087;28;20022;-76
2021/01/15 05:00:26;;;;;;;14.82;8.00;;;1.50;92.90;;;;;;5016276;28;20539;-76
2021/01/15 05:02:53;;;;;;;14.57;7.95;;;1.40;93.10;;;;;;5036894;28;20036;-76
2021/01/15 05:05:26;;;;;;;13.95;6.90;;;1.40;93.30;;;;;;5023131;28;20038;-76
2021/01/15 05:08:22;;;;;;;14.65;8.30;;;1.40;93.30;;;;;;5008206;28;20036;-76
2021/01/15 05:10:48;;;;;;;17.40;8.48;;;1.40;93.20;;;;;;5021046;28;20018;-76
2021/01/15 05:13:16;;;;;;;14.40;7.65;;;1.40;93.40;;;;;;5021183;28;20076;-76
2021/01/15 05:15:49;;;;;;;15.23;7.68;;;1.40;93.50;;;;;;5021103;28;20117;-77
2021/01/15 05:18:17;;;;;;;18.60;7.30;;;1.40;93.40;;;;;;5021000;28;20497;-76
2021/01/15 05:20:51;;;;;;;16.05;7.63;;;1.50;93.30;;;;;;5023325;28;20552;-76
2021/01/15 05:23:17;;;;;;;14.13;7.03;;;1.50;93.40;;;;;;5018438;28;20092;-76
2021/01/15 05:25:47;;;;;;;13.65;7.20;;;1.50;93.10;;;;;;5018626;28;20448;-77
2021/01/15 05:28:17;;;;;;;15.97;8.17;;;1.50;93.30;;;;;;5018969;28;20104;-76
2021/01/15 05:30:43;;;;;;;14.40;7.72;;;1.50;93.40;;;;;;5018405;28;20103;-76
2021/01/15 05:33:14;;;;;;;14.27;7.70;;;1.60;93.50;;;;;;5023407;28;20026;-77
2021/01/15 05:35:51;;;;;;;16.83;8.02;;;1.50;93.40;;;;;;5020999;28;20046;-77
2021/01/15 05:38:20;;;;;;;15.68;8.63;;;1.50;92.70;;;;;;5018381;28;20029;-77
2021/01/15 05:40:48;;;;;;;14.30;7.57;;;1.50;93.00;;;;;;5021093;28;20468;-77
2021/01/15 05:43:42;;;;;;;17.88;8.15;;;1.50;92.80;;;;;;5021167;28;20617;-77
2021/01/15 05:46:20;;;;;;;16.00;8.07;;;1.50;92.90;;;;;;5017295;28;20040;-76
2021/01/15 05:48:48;;;;;;;16.05;8.40;;;1.40;92.80;;;;;;5023284;28;20037;-77
2021/01/15 05:51:30;;;;;;;14.90;8.45;;;1.40;93.00;;;;;;4997659;28;20022;-76
2021/01/15 05:54:01;;;;;;;14.27;7.60;;;1.40;92.80;;;;;;5014672;28;20021;-77
2021/01/15 05:56:45;;;;;;;16.92;9.35;;;1.40;93.00;;;;;;5017882;28;20033;-80
2021/01/15 05:59:13;;;;;;;16.13;8.40;;;1.40;92.70;;;;;;5016397;28;20026;-76
2021/01/15 06:01:49;;;;;;;17.05;8.23;;;1.40;92.50;;;;;;5015912;28;20052;-76
2021/01/15 06:04:32;;;;;;;15.43;8.27;;;1.30;92.90;;;;;;5014614;28;20498;-76
2021/01/15 06:07:00;;;;;;;14.95;8.75;;;1.40;93.10;;;;;;5015176;28;21843;-77
2021/01/15 06:09:25;;;;;;;15.25;7.38;;;1.30;93.00;;;;;;5010002;28;20023;-75
2021/01/15 06:11:52;;;;;;;14.25;8.27;;;1.40;92.90;;;;;;4995177;28;20026;-75
2021/01/15 06:14:23;;;;;;;15.60;8.20;;;1.40;93.10;;;;;;5020870;28;20037;-75
2021/01/15 06:17:03;;;;;;;15.80;8.35;;;1.40;93.10;;;;;;5010803;28;20033;-74
2021/01/15 06:19:48;;;;;;;17.05;9.10;;;1.40;92.90;;;;;;5011180;28;20490;-74
2021/01/15 06:22:43;;;;;;;19.50;8.52;;;1.40;92.90;;;;;;5018634;28;20034;-74
2021/01/15 06:25:32;;;;;;;15.60;7.80;;;1.40;92.80;;;;;;5017889;28;20061;-75
2021/01/15 06:28:04;;;;;;;15.80;8.35;;;1.40;92.90;;;;;;5020425;28;20025;-75
2021/01/15 06:30:33;;;;;;;19.35;9.25;;;1.30;92.50;;;;;;5018438;28;20025;-75
2021/01/15 06:33:13;;;;;;;18.67;8.18;;;1.30;92.50;;;;;;5029876;28;20037;-76
2021/01/15 06:35:41;;;;;;;14.65;7.90;;;1.40;92.90;;;;;;5014505;28;20088;-74
2021/01/15 06:38:11;;;;;;;16.30;8.48;;;1.40;92.50;;;;;;5015515;28;20029;-77
2021/01/15 06:40:44;;;;;;;15.82;8.43;;;1.30;92.80;;;;;;5024439;28;20033;-76
2021/01/15 06:43:11;;;;;;;17.98;8.88;;;1.30;92.60;;;;;;5011306;28;20112;-76
2021/01/15 06:45:43;;;;;;;15.35;8.68;;;1.30;92.60;;;;;;5019449;28;20037;-76
2021/01/15 06:48:13;;;;;;;15.10;8.05;;;1.30;92.80;;;;;;5015195;28;20432;-76
2021/01/15 06:50:40;;;;;;;18.17;8.60;;;1.30;92.10;;;;;;5019514;28;20029;-75
2021/01/15 06:53:21;;;;;;;14.95;7.93;;;1.30;92.50;;;;;;5024681;28;20030;-76
2021/01/15 06:55:53;;;;;;;16.05;8.98;;;1.20;92.40;;;;;;5017697;28;20104;-76
2021/01/15 06:58:36;;;;;;;17.67;10.07;;;1.20;92.90;;;;;;5034683;28;20049;-76
2021/01/15 07:01:22;;;;;;;16.27;8.60;;;1.20;92.40;;;;;;5014937;28;20569;-75
2021/01/15 07:03:51;;;;;;;20.15;9.18;;;1.30;92.70;;;;;;5017897;28;20044;-75
2021/01/15 07:06:31;;;;;;;15.70;8.73;;;1.30;92.30;;;;;;5035155;28;20029;-78
2021/01/15 07:08:59;;;;;;;16.60;8.15;;;1.30;92.30;;;;;;5015755;28;20037;-76
2021/01/15 07:11:28;;;;;;;19.05;9.35;;;1.30;92.40;;;;;;5022341;28;20022;-77
2021/01/15 07:13:56;;;;;;;16.00;8.63;;;1.20;92.30;;;;;;5030392;28;20026;-78
2021/01/15 07:16:27;;;;;;;16.40;9.20;;;1.20;92.00;;;;;;5025881;28;20033;-77
2021/01/15 07:19:00;;;;;;;16.52;8.88;;;1.20;92.50;;;;;;5030252;28;20030;-77
2021/01/15 07:21:30;;;;;;;19.38;8.48;;;1.20;92.40;;;;;;4998667;28;20086;-77
2021/01/15 07:24:04;;;;;;;16.38;8.85;;;1.20;92.30;;;;;;5019516;28;23372;-77
2021/01/15 07:26:41;;;;;;;17.17;10.05;;;1.20;91.60;;;;;;5016455;28;20036;-76
2021/01/15 07:29:09;;;;;;;16.33;8.70;;;1.20;92.20;;;;;;5014686;28;20124;-77
2021/01/15 07:31:40;;;;;;;19.17;9.30;;;1.20;92.20;;;;;;5018135;28;20022;-76
2021/01/15 07:34:13;;;;;;;16.35;8.73;;;1.20;92.40;;;;;;5012939;28;20029;-75
2021/01/15 07:36:40;;;;;;;16.58;8.45;;;1.20;92.10;;;;;;4999267;28;20511;-75
2021/01/15 07:39:09;;;;;;;15.68;9.18;;;1.30;92.10;;;;;;5014913;28;20056;-75
2021/01/15 07:41:41;;;;;;;17.67;9.73;;;1.30;91.60;;;;;;5015678;28;20074;-75
2021/01/15 07:44:25;;;;;;;17.45;9.70;;;1.30;91.40;;;;;;5017275;28;20415;-75
2021/01/15 07:46:52;;;;;;;19.23;9.32;;;1.30;91.10;;;;;;5017937;28;20557;-76
2021/01/15 07:49:19;;;;;;;18.15;8.85;;;1.20;91.50;;;;;;5015721;28;20108;-76
2021/01/15 07:52:07;;;;;;;20.88;10.65;;;1.20;91.40;;;;;;5017184;28;20052;-76
2021/01/15 07:54:46;;;;;;;16.98;9.82;;;1.20;91.20;;;;;;4997098;28;20030;-75
2021/01/15 07:57:13;;;;;;;20.65;10.35;;;1.20;91.20;;;;;;5030845;28;20026;-76
2021/01/15 07:59:38;;;;;;;16.77;9.05;;;1.10;90.90;;;;;;5016758;28;20075;-76
2021/01/15 08:02:05;;;;;;;20.80;9.93;;;1.10;91.20;;;;;;5015396;28;20025;-75
2021/01/15 08:04:30;;;;;;;20.08;10.35;;;1.10;91.20;;;;;;5027450;28;20026;-75
2021/01/15 08:07:09;;;;;;;21.85;10.50;;;1.10;91.20;;;;;;5012207;28;20056;-75
2021/01/15 08:09:42;;;;;;;17.58;9.40;;;1.10;91.60;;;;;;5017027;28;20033;-75
2021/01/15 08:12:08;;;;;;;20.63;11.00;;;1.00;91.90;;;;;;5016300;28;20034;-75
2021/01/15 08:14:34;;;;;;;19.70;10.32;;;1.10;92.20;;;;;;5024060;28;20025;-76
2021/01/15 08:17:10;;;;;;;21.70;11.00;;;1.10;91.90;;;;;;5014629;28;20378;-75
2021/01/15 08:19:37;;;;;;;19.63;10.98;;;1.10;92.20;;;;;;5018529;28;20030;-76
2021/01/15 08:22:07;;;;;;;22.55;12.30;;;1.10;92.20;;;;;;5015284;28;20029;-76
2021/01/15 08:24:44;;;;;;;23.75;11.30;;;1.10;92.30;;;;;;5016514;28;20042;-76
2021/01/15 08:27:22;;;;;;;21.83;10.75;;;1.00;92.30;;;;;;5015287;28;20034;-77
2021/01/15 08:29:50;;;;;;;25.45;11.95;;;1.00;92.50;;;;;;5012577;28;20045;-77
2021/01/15 08:32:16;;;;;;;21.45;10.57;;;1.00;92.50;;;;;;5015525;28;20021;-77
2021/01/15 08:34:44;;;;;;;20.50;11.05;;;1.00;92.50;;;;;;5029929;28;20037;-77
2021/01/15 08:37:11;;;;;;;19.30;10.95;;;1.00;92.60;;;;;;5000230;28;20064;-77
2021/01/15 08:39:46;;;;;;;23.73;12.00;;;1.00;92.30;;;;;;5019519;28;20108;-77
2021/01/15 08:42:14;;;;;;;20.17;10.35;;;1.00;92.30;;;;;;5013976;28;20064;-78
2021/01/15 08:44:41;;;;;;;20.73;11.20;;;1.10;91.70;;;;;;5038496;23;20336;-77
2021/01/15 08:47:11;;;;;;;20.15;10.50;;;1.00;92.10;;;;;;5045703;28;20443;-75
2021/01/15 08:49:38;;;;;;;22.73;10.50;;;1.00;91.90;;;;;;5041710;28;20032;-76
2021/01/15 08:52:05;;;;;;;22.67;11.02;;;1.00;91.60;;;;;;5045832;28;20041;-77
2021/01/15 08:54:32;;;;;;;21.98;11.30;;;1.00;91.70;;;;;;5041195;28;20084;-77
2021/01/15 08:57:00;;;;;;;20.00;10.50;;;0.90;91.40;;;;;;5019160;28;20022;-77
2021/01/15 08:59:28;;;;;;;22.65;10.50;;;0.90;91.50;;;;;;5034241;28;20037;-78
2021/01/15 09:01:56;;;;;;;23.77;11.38;;;0.90;92.00;;;;;;5035797;28;20055;-76
2021/01/15 09:04:33;;;;;;;20.33;10.50;;;0.90;91.70;;;;;;5037124;28;20025;-77
2021/01/15 09:07:04;;;;;;;23.13;11.35;;;0.90;91.70;;;;;;5039323;28;20495;-76
2021/01/15 09:09:31;;;;;;;20.25;11.07;;;0.90;92.00;;;;;;5023534;28;20025;-76
2021/01/15 09:12:05;;;;;;;20.17;10.02;;;0.90;91.40;;;;;;5037423;28;20083;-76
2021/01/15 09:14:35;;;;;;;21.50;10.68;;;0.90;91.60;;;;;;5040696;28;20040;-77
2021/01/15 09:17:08;;;;;;;17.88;10.07;;;0.90;91.80;;;;;;5036516;28;20093;-76
2021/01/15 09:19:35;;;;;;;21.65;11.02;;;0.90;91.70;;;;;;5020929;28;20033;-76
2021/01/15 09:22:04;;;;;;;21.88;10.82;;;0.90;92.10;;;;;;5039420;28;20033;-76
2021/01/15 09:24:31;;;;;;;19.83;10.73;;;0.90;91.70;;;;;;5040273;28;20033;-76
2021/01/15 09:27:02;;;;;;;20.13;10.07;;;0.90;91.60;;;;;;5039019;28;20033;-76
2021/01/15 09:29:28;;;;;;;18.90;10.73;;;0.90;91.30;;;;;;5040804;28;20496;-76
2021/01/15 09:31:54;;;;;;;25.88;11.45;;;0.90;91.40;;;;;;5038137;28;20040;-76
2021/01/15 09:34:21;;;;;;;21.23;10.45;;;0.90;91.70;;;;;;5038635;28;20488;-76
2021/01/15 09:36:49;;;;;;;21.50;10.65;;;0.90;91.60;;;;;;5040273;28;20102;-77
2021/01/15 09:39:17;;;;;;;20.20;10.38;;;0.90;91.70;;;;;;5022612;28;20020;-76
2021/01/15 09:41:44;;;;;;;19.02;9.77;;;0.90;91.50;;;;;;5037745;28;20037;-75
2021/01/15 09:44:10;;;;;;;22.67;11.23;;;1.00;92.80;;;;;;5021352;28;20122;-76
2021/01/15 09:46:36;;;;;;;20.13;9.93;;;1.00;91.60;;;;;;5037726;28;20026;-76
2021/01/15 09:49:01;;;;;;;19.40;10.18;;;1.00;91.70;;;;;;5021704;28;20051;-76
2021/01/15 09:51:29;;;;;;;20.38;9.90;;;1.00;91.60;;;;;;5018927;28;20490;-76
2021/01/15 09:53:56;;;;;;;20.90;10.38;;;1.00;91.70;;;;;;5036311;28;20031;-76
2021/01/15 09:56:30;;;;;;;22.90;10.88;;;1.00;91.60;;;;;;5021700;28;20401;-75
2021/01/15 09:59:00;;;;;;;18.63;9.82;;;1.00;91.50;;;;;;5037697;28;20394;-77
2021/01/15 10:01:28;;;;;;;19.67;10.27;;;1.00;91.70;;;;;;5033918;28;20068;-75
2021/01/15 10:03:58;;;;;;;22.48;10.75;;;1.00;91.60;;;;;;5035625;28;20290;-75
2021/01/15 10:06:27;;;;;;;21.33;10.65;;;0.90;91.60;;;;;;5038230;28;20112;-75
2021/01/15 10:08:53;;;;;;;18.75;9.68;;;0.90;91.90;;;;;;5034218;28;20545;-75
2021/01/15 10:11:30;;;;;;;18.48;10.38;;;1.00;91.30;;;;;;5020502;28;20033;-76
2021/01/15 10:13:57;;;;;;;20.45;10.02;;;1.00;91.70;;;;;;5035080;28;20132;-75
2021/01/15 10:16:24;;;;;;;19.98;9.77;;;1.00;91.20;;;;;;5040450;28;20028;-74
2021/01/15 10:18:51;;;;;;;22.15;9.30;;;0.90;91.20;;;;;;5051329;28;20021;-74
2021/01/15 10:21:24;;;;;;;18.80;10.68;;;1.00;91.00;;;;;;5039984;28;20025;-74
2021/01/15 10:23:51;;;;;;;20.08;10.98;;;1.00;91.40;;;;;;5047238;28;20036;-74
2021/01/15 10:26:30;;;;;;;17.70;10.27;;;0.90;91.70;;;;;;5038228;28;20037;-74
2021/01/15 10:29:02;;;;;;;19.02;9.40;;;0.90;91.10;;;;;;5043315;28;20041;-75
2021/01/15 10:31:44;;;;;;;18.60;9.30;;;0.90;91.20;;;;;;5039773;28;20040;-75
2021/01/15 10:34:10;;;;;;;19.40;9.60;;;0.90;91.10;;;;;;5039837;28;20021;-76
2021/01/15 10:36:39;;;;;;;20.35;9.90;;;0.90;91.10;;;;;;5056310;28;20073;-76
2021/01/15 10:39:05;;;;;;;18.02;9.38;;;0.90;91.40;;;;;;5033371;28;20021;-75
2021/01/15 10:41:32;;;;;;;19.20;10.95;;;0.90;91.40;;;;;;5038728;28;20040;-75
2021/01/15 10:44:03;;;;;;;20.88;9.98;;;0.90;90.60;;;;;;5019952;28;20052;-76
2021/01/15 10:46:29;;;;;;;19.65;9.20;;;0.80;91.20;;;;;;5040145;28;20057;-75
2021/01/15 10:48:55;;;;;;;16.17;8.55;;;0.80;91.20;;;;;;5036342;28;20029;-75
2021/01/15 10:51:20;;;;;;;18.08;9.30;;;0.80;91.00;;;;;;5022086;28;20026;-75
2021/01/15 10:53:46;;;;;;;20.70;9.85;;;0.80;90.90;;;;;;5035437;28;20040;-75
2021/01/15 10:56:12;;;;;;;20.42;9.88;;;0.80;90.90;;;;;;5039747;28;20052;-75
2021/01/15 10:58:37;;;;;;;18.58;8.75;;;0.80;90.90;;;;;;5037958;28;20114;-75
2021/01/15 11:01:03;;;;;;;20.85;9.68;;;0.80;91.20;;;;;;5034413;28;20056;-75
2021/01/15 11:03:29;;;;;;;18.05;9.20;;;0.80;91.00;;;;;;5023758;28;20418;-75
2021/01/15 11:05:54;;;;;;;17.27;9.85;;;0.80;91.10;;;;;;5035893;28;21093;-75
2021/01/15 11:08:20;;;;;;;17.98;9.40;;;0.80;91.10;;;;;;5039368;28;20021;-75
2021/01/15 11:10:46;;;;;;;17.00;8.00;;;0.80;91.10;;;;;;5040717;28;20024;-75
2021/01/15 11:13:11;;;;;;;18.08;8.65;;;0.80;90.90;;;;;;5037656;28;20040;-75
2021/01/15 11:15:37;;;;;;;18.05;9.23;;;0.80;91.10;;;;;;5039287;28;20511;-76
2021/01/15 11:18:03;;;;;;;16.48;9.18;;;0.80;91.60;;;;;;5038004;28;20031;-77
2021/01/15 11:20:28;;;;;;;15.52;8.32;;;0.80;91.30;;;;;;5039571;28;20022;-78
2021/01/15 11:22:54;;;;;;;16.65;8.80;;;0.80;91.00;;;;;;5043379;28;20751;-77
2021/01/15 11:25:20;;;;;;;16.17;7.47;;;0.80;91.20;;;;;;5046039;28;20091;-77
2021/01/15 11:28:02;;;;;;;17.40;8.88;;;0.80;90.70;;;;;;5050485;28;20042;-77
2021/01/15 11:30:28;;;;;;;18.23;8.68;;;0.80;91.00;;;;;;5045028;28;20036;-76
2021/01/15 11:32:58;;;;;;;18.92;8.52;;;0.80;91.50;;;;;;5019803;28;20076;-76
2021/01/15 11:35:24;;;;;;;17.20;8.75;;;0.80;91.10;;;;;;5035110;28;20127;-76
2021/01/15 11:37:57;;;;;;;20.55;8.95;;;0.80;91.20;;;;;;5035519;28;20111;-76
2021/01/15 11:40:24;;;;;;;17.45;9.25;;;0.80;91.30;;;;;;5016622;28;20459;-76
2021/01/15 11:42:57;;;;;;;17.17;8.13;;;0.80;90.90;;;;;;5034035;28;20045;-76
2021/01/15 11:45:24;;;;;;;17.52;8.57;;;0.80;90.90;;;;;;5034000;28;20033;-76
2021/01/15 11:47:54;;;;;;;17.70;8.98;;;0.80;90.80;;;;;;5040581;28;20126;-76
2021/01/15 11:50:24;;;;;;;16.75;8.48;;;0.80;91.20;;;;;;5044619;28;20053;-76
2021/01/15 11:52:54;;;;;;;15.63;8.50;;;0.80;91.20;;;;;;5028217;28;20435;-75
2021/01/15 11:55:20;;;;;;;19.13;9.23;;;0.80;91.10;;;;;;5019368;28;20273;-75
2021/01/15 11:57:50;;;;;;;16.42;8.27;;;0.80;91.10;;;;;;5035237;28;20021;-74
2021/01/15 12:00:16;;;;;;;13.82;7.85;;;0.90;91.00;;;;;;5040686;28;20604;-75
2021/01/15 12:02:42;;;;;;;15.15;8.15;;;0.90;90.60;;;;;;5037306;28;20041;-75
2021/01/15 12:05:08;;;;;;;18.08;9.43;;;0.80;90.70;;;;;;5035846;28;20031;-75
2021/01/15 12:07:34;;;;;;;13.15;7.53;;;0.90;90.90;;;;;;5039223;28;20029;-75
2021/01/15 12:09:59;;;;;;;14.88;7.13;;;0.90;90.80;;;;;;5039132;28;20025;-75
2021/01/15 12:12:25;;;;;;;16.25;8.27;;;0.90;90.50;;;;;;5036356;28;20063;-75
2021/01/15 12:14:50;;;;;;;13.55;7.65;;;0.90;91.00;;;;;;5025683;28;20044;-76
2021/01/15 12:17:16;;;;;;;15.00;7.22;;;0.90;90.80;;;;;;5040338;28;20131;-75
2021/01/15 12:19:42;;;;;;;13.98;6.60;;;0.90;90.50;;;;;;5043639;28;20028;-75
2021/01/15 12:22:07;;;;;;;13.73;6.85;;;0.90;90.60;;;;;;5023564;28;20029;-75
2021/01/15 12:24:33;;;;;;;14.07;7.40;;;0.90;90.80;;;;;;5034798;28;20044;-74
2021/01/15 12:26:59;;;;;;;13.73;7.28;;;0.90;90.70;;;;;;5021977;28;20064;-76
2021/01/15 12:29:26;;;;;;;13.23;6.80;;;0.90;90.70;;;;;;5036101;28;20563;-75
2021/01/15 12:31:58;;;;;;;15.02;7.28;;;0.90;90.70;;;;;;5034589;28;20028;-76
2021/01/15 12:34:24;;;;;;;14.82;7.57;;;0.90;90.50;;;;;;5038272;28;20487;-76
2021/01/15 12:36:49;;;;;;;12.25;7.00;;;0.90;90.60;;;;;;5042745;28;20064;-76
2021/01/15 12:39:15;;;;;;;16.55;7.22;;;0.90;90.60;;;;;;5040021;28;20965;-77
2021/01/15 12:41:41;;;;;;;14.77;7.00;;;0.90;90.50;;;;;;5038867;28;20021;-76
2021/01/15 12:44:07;;;;;;;13.35;7.32;;;0.90;90.10;;;;;;5040698;28;20037;-75
2021/01/15 12:46:33;;;;;;;13.40;7.28;;;0.90;90.20;;;;;;5043420;28;20028;-76
2021/01/15 12:48:59;;;;;;;11.82;6.57;;;0.90;89.40;;;;;;5031895;28;20044;-76
2021/01/15 12:51:24;;;;;;;13.55;6.72;;;0.90;90.20;;;;;;5065938;28;20033;-77
2021/01/15 12:53:50;;;;;;;12.65;6.80;;;0.90;89.40;;;;;;5033006;28;20112;-76